createdAt,value
2022-12-31T00:02:07.537Z,79.30
2022-12-31T00:04:35.635Z,81.97
2022-12-31T00:07:03.794Z,80.73
2022-12-31T00:09:31.876Z,88.70
2022-12-31T00:12:00.033Z,82.67
2022-12-31T00:14:28.074Z,77.60
2022-12-31T00:16:57.638Z,76.10
2022-12-31T00:19:25.743Z,76.97
2022-12-31T00:21:53.811Z,77.53
2022-12-31T00:24:22.016Z,71.33
2022-12-31T00:26:50.081Z,77.03
2022-12-31T00:29:18.197Z,64.93
2022-12-31T00:31:46.397Z,77.33
2022-12-31T00:34:15.807Z,67.23
2022-12-31T00:36:46.230Z,76.33
2022-12-31T00:39:14.504Z,71.97
2022-12-31T00:41:44.141Z,66.60
2022-12-31T00:44:13.384Z,73.10
2022-12-31T00:49:08.398Z,68.20
2022-12-31T00:51:37.884Z,70.63
2022-12-31T00:54:06.033Z,68.33
2022-12-31T00:56:34.182Z,73.73
2022-12-31T00:59:02.324Z,67.77
2022-12-31T01:01:32.243Z,67.87
2022-12-31T01:04:06.932Z,72.57
2022-12-31T01:06:35.263Z,68.70
2022-12-31T01:09:05.381Z,68.13
2022-12-31T01:11:33.908Z,69.93
2022-12-31T01:14:04.097Z,67.20
2022-12-31T01:16:34.403Z,60.33
2022-12-31T01:19:04.832Z,57.80
2022-12-31T01:21:33.771Z,57.47
2022-12-31T01:24:01.928Z,51.83
2022-12-31T01:26:31.476Z,57.57
2022-12-31T01:29:00.355Z,52.60
2022-12-31T01:31:28.764Z,53.87
2022-12-31T01:33:56.950Z,57.23
2022-12-31T01:36:26.999Z,52.07
2022-12-31T01:38:55.958Z,54.50
2022-12-31T01:41:25.419Z,50.77
2022-12-31T01:43:57.544Z,51.63
2022-12-31T01:46:32.261Z,51.20
2022-12-31T01:49:03.155Z,59.87
2022-12-31T01:51:33.954Z,52.07
2022-12-31T01:54:04.438Z,48.47
2022-12-31T01:56:32.552Z,50.77
2022-12-31T01:59:02.380Z,50.20
2022-12-31T02:01:34.069Z,45.77
2022-12-31T02:04:08.057Z,49.43
2022-12-31T02:06:41.412Z,44.73
2022-12-31T02:09:10.253Z,46.00
2022-12-31T02:11:38.281Z,44.03
2022-12-31T02:14:10.896Z,46.37
2022-12-31T02:16:46.131Z,42.40
2022-12-31T02:19:47.576Z,44.97
2022-12-31T02:22:29.794Z,41.57
2022-12-31T02:25:25.496Z,43.13
2022-12-31T02:28:04.300Z,42.37
2022-12-31T02:30:34.552Z,45.87
2022-12-31T02:33:14.360Z,45.10
2022-12-31T02:35:50.760Z,44.17
2022-12-31T02:38:24.151Z,46.60
2022-12-31T02:40:54.457Z,50.47
2022-12-31T02:43:22.456Z,45.03
2022-12-31T02:45:59.864Z,47.73
2022-12-31T02:48:41.805Z,51.00
2022-12-31T02:51:24.146Z,41.20
2022-12-31T02:54:08.054Z,43.93
2022-12-31T02:56:43.421Z,48.40
2022-12-31T02:59:38.137Z,45.67
2022-12-31T03:02:19.453Z,47.83
2022-12-31T03:04:52.559Z,47.47
2022-12-31T03:07:23.263Z,54.33
2022-12-31T03:09:51.877Z,51.00
2022-12-31T03:12:39.758Z,54.93
2022-12-31T03:15:20.053Z,46.10
2022-12-31T03:17:58.450Z,46.33
2022-12-31T03:20:47.804Z,48.47
2022-12-31T03:23:19.131Z,43.77
2022-12-31T03:25:46.259Z,45.00
2022-12-31T03:28:16.520Z,45.30
2022-12-31T03:30:46.993Z,53.43
2022-12-31T03:33:17.158Z,49.63
2022-12-31T03:35:48.269Z,52.43
2022-12-31T03:38:16.946Z,48.77
2022-12-31T03:40:47.176Z,47.87
2022-12-31T03:43:15.434Z,53.37
2022-12-31T03:45:43.696Z,44.07
2022-12-31T03:48:12.177Z,47.03
2022-12-31T03:50:41.600Z,49.47
2022-12-31T03:53:09.815Z,45.30
2022-12-31T03:55:37.999Z,43.40
2022-12-31T03:58:06.480Z,41.83
2022-12-31T04:00:34.644Z,45.93
2022-12-31T04:03:02.733Z,44.13
2022-12-31T04:05:31.400Z,48.33
2022-12-31T04:08:00.828Z,45.80
2022-12-31T04:10:28.904Z,38.53
2022-12-31T04:12:56.898Z,47.03
2022-12-31T04:15:25.014Z,44.53
2022-12-31T04:17:52.981Z,48.13
2022-12-31T04:20:21.069Z,40.90
2022-12-31T04:22:49.197Z,39.00
2022-12-31T04:25:18.944Z,41.47
2022-12-31T04:27:47.216Z,43.83
2022-12-31T04:30:16.275Z,45.00
2022-12-31T04:32:44.273Z,42.63
2022-12-31T04:35:12.714Z,45.93
2022-12-31T04:37:40.971Z,47.17
2022-12-31T04:40:11.212Z,50.37
2022-12-31T04:42:40.709Z,53.43
2022-12-31T04:45:09.868Z,48.07
2022-12-31T04:47:37.885Z,54.17
2022-12-31T04:50:07.391Z,48.60
2022-12-31T04:52:40.452Z,50.10
2022-12-31T04:55:11.064Z,47.13
2022-12-31T04:57:40.663Z,44.73
2022-12-31T05:00:10.126Z,47.13
2022-12-31T05:02:38.377Z,52.03
2022-12-31T05:05:07.354Z,49.23
2022-12-31T05:07:35.299Z,51.73
2022-12-31T05:10:03.409Z,51.53
2022-12-31T05:12:31.443Z,49.97
2022-12-31T05:15:00.909Z,47.70
2022-12-31T05:17:28.868Z,53.43
2022-12-31T05:19:56.920Z,48.03
2022-12-31T05:22:30.816Z,46.27
2022-12-31T05:24:59.819Z,50.47
2022-12-31T05:27:31.253Z,56.00
2022-12-31T05:30:01.495Z,60.43
2022-12-31T05:32:29.544Z,56.23
2022-12-31T05:34:58.169Z,55.87
2022-12-31T05:37:26.258Z,52.73
2022-12-31T05:39:54.451Z,55.07
2022-12-31T05:42:22.776Z,49.97
2022-12-31T05:44:51.223Z,50.50
2022-12-31T05:47:20.861Z,49.93
2022-12-31T05:49:49.140Z,54.17
2022-12-31T05:52:17.499Z,50.47
2022-12-31T05:54:45.679Z,58.47
2022-12-31T05:57:13.900Z,58.17
2022-12-31T05:59:42.210Z,58.47
2022-12-31T06:02:10.205Z,53.13
2022-12-31T06:04:39.727Z,61.03
2022-12-31T06:07:07.762Z,59.00
2022-12-31T06:09:35.801Z,62.00
2022-12-31T06:12:03.967Z,53.30
2022-12-31T06:14:32.134Z,60.30
2022-12-31T06:17:00.252Z,61.53
2022-12-31T06:19:28.267Z,61.33
2022-12-31T06:21:57.731Z,58.60
2022-12-31T06:24:25.720Z,61.83
2022-12-31T06:26:53.862Z,54.27
2022-12-31T06:29:21.938Z,53.67
2022-12-31T06:31:50.092Z,53.97
2022-12-31T06:34:18.410Z,61.67
2022-12-31T06:36:46.578Z,56.23
2022-12-31T06:39:16.133Z,60.27
2022-12-31T06:41:44.163Z,64.73
2022-12-31T06:44:12.310Z,62.17
2022-12-31T06:46:40.334Z,65.00
2022-12-31T06:49:08.444Z,58.07
2022-12-31T06:51:36.426Z,61.30
2022-12-31T06:54:04.528Z,65.10
2022-12-31T06:56:35.156Z,64.07
2022-12-31T06:59:04.990Z,56.10
2022-12-31T07:01:50.302Z,58.03
2022-12-31T07:04:51.315Z,57.53
2022-12-31T07:07:26.942Z,65.10
2022-12-31T07:10:02.582Z,57.67
2022-12-31T07:12:48.238Z,66.30
2022-12-31T07:15:21.144Z,86.30
2022-12-31T07:17:55.972Z,74.60
2022-12-31T07:20:25.980Z,86.90
2022-12-31T07:22:57.822Z,69.37
2022-12-31T07:25:26.528Z,71.17
2022-12-31T07:28:07.285Z,76.50
2022-12-31T07:30:44.051Z,76.33
2022-12-31T07:33:31.240Z,77.07
2022-12-31T07:36:10.879Z,81.20
2022-12-31T07:38:49.025Z,79.40
2022-12-31T07:41:25.177Z,73.03
2022-12-31T07:44:02.373Z,77.70
2022-12-31T07:46:38.404Z,78.17
2022-12-31T07:49:10.899Z,79.17
2022-12-31T07:51:39.747Z,78.33
2022-12-31T07:54:13.632Z,78.77
2022-12-31T07:56:42.877Z,83.57
2022-12-31T07:59:24.277Z,75.90
2022-12-31T08:02:00.074Z,80.17
2022-12-31T08:04:33.830Z,74.73
2022-12-31T08:07:12.861Z,66.40
2022-12-31T08:09:48.386Z,70.33
2022-12-31T08:12:16.841Z,77.60
2022-12-31T08:14:48.718Z,70.97
2022-12-31T08:17:19.150Z,76.93
2022-12-31T08:19:50.109Z,72.30
2022-12-31T08:22:43.227Z,73.17
2022-12-31T08:25:24.960Z,71.30
2022-12-31T08:28:04.211Z,81.63
2022-12-31T08:30:43.190Z,74.33
2022-12-31T08:33:15.625Z,83.90
2022-12-31T08:35:58.434Z,81.77
2022-12-31T08:38:33.488Z,78.10
2022-12-31T08:41:09.650Z,77.30
2022-12-31T08:43:49.644Z,72.27
2022-12-31T08:46:25.603Z,68.43
2022-12-31T08:48:54.817Z,72.90
2022-12-31T08:51:25.428Z,68.97
2022-12-31T08:53:55.448Z,64.27
2022-12-31T08:56:31.220Z,72.97
2022-12-31T08:59:12.680Z,74.40
2022-12-31T09:01:59.260Z,73.90
2022-12-31T09:04:36.955Z,72.23
2022-12-31T09:07:06.306Z,74.67
2022-12-31T09:09:43.671Z,77.10
2022-12-31T09:12:19.923Z,74.93
2022-12-31T09:14:51.929Z,74.77
2022-12-31T09:17:45.192Z,81.93
2022-12-31T09:20:24.961Z,70.90
2022-12-31T09:22:54.565Z,69.33
2022-12-31T09:25:25.066Z,70.63
2022-12-31T09:28:10.526Z,58.33
2022-12-31T09:30:47.309Z,60.60
2022-12-31T09:33:31.003Z,60.50
2022-12-31T09:36:03.334Z,53.93
2022-12-31T09:38:42.235Z,51.17
2022-12-31T09:41:18.040Z,51.43
2022-12-31T09:44:33.028Z,54.40
2022-12-31T09:47:33.693Z,60.33
2022-12-31T09:50:22.238Z,60.80
2022-12-31T09:53:06.319Z,63.97
2022-12-31T09:55:38.623Z,61.00
2022-12-31T09:58:24.845Z,58.03
2022-12-31T10:00:59.000Z,57.03
2022-12-31T10:03:54.751Z,55.57
2022-12-31T10:06:28.185Z,49.40
2022-12-31T10:09:17.930Z,53.60
2022-12-31T10:12:03.108Z,53.93
2022-12-31T10:14:47.525Z,50.40
2022-12-31T10:17:28.099Z,51.17
2022-12-31T10:20:21.497Z,49.57
2022-12-31T10:23:31.437Z,49.70
2022-12-31T10:26:28.046Z,46.47
2022-12-31T10:29:00.884Z,44.20
2022-12-31T10:31:40.522Z,42.07
2022-12-31T10:34:26.396Z,44.77
2022-12-31T10:36:59.135Z,47.87
2022-12-31T10:39:39.940Z,47.83
2022-12-31T10:42:35.587Z,47.23
2022-12-31T10:45:31.807Z,46.13
2022-12-31T10:48:50.676Z,48.40
2022-12-31T10:51:48.077Z,49.87
2022-12-31T10:54:51.982Z,51.10
2022-12-31T10:57:52.767Z,44.93
2022-12-31T11:00:22.677Z,47.60
2022-12-31T11:03:47.436Z,53.97
2022-12-31T11:06:42.317Z,43.97
2022-12-31T11:09:46.081Z,46.53
2022-12-31T11:12:47.430Z,47.57
2022-12-31T11:15:29.867Z,40.67
2022-12-31T11:18:08.941Z,42.30
2022-12-31T11:20:57.377Z,42.83
2022-12-31T11:23:38.274Z,43.07
2022-12-31T11:26:19.908Z,40.83
2022-12-31T11:29:29.546Z,39.33
2022-12-31T11:32:24.064Z,42.10
2022-12-31T11:35:17.113Z,45.83
2022-12-31T11:37:48.801Z,38.33
2022-12-31T11:40:32.424Z,39.47
2022-12-31T11:43:05.633Z,37.87
2022-12-31T11:45:55.728Z,34.30
2022-12-31T11:48:33.726Z,45.17
2022-12-31T11:51:23.921Z,47.70
2022-12-31T11:54:25.237Z,41.73
2022-12-31T11:57:04.095Z,36.67
2022-12-31T11:59:32.577Z,42.37
2022-12-31T12:02:06.663Z,38.47
2022-12-31T12:04:36.236Z,40.20
2022-12-31T12:07:04.374Z,40.50
2022-12-31T12:09:35.912Z,41.63
2022-12-31T12:12:06.319Z,37.37
2022-12-31T12:14:36.581Z,39.83
2022-12-31T12:17:07.756Z,36.73
2022-12-31T12:19:43.087Z,39.87
2022-12-31T12:22:12.229Z,39.57
2022-12-31T12:24:40.555Z,38.80
2022-12-31T12:27:23.942Z,37.13
2022-12-31T12:29:52.101Z,36.87
2022-12-31T12:32:23.075Z,36.63
2022-12-31T12:34:53.187Z,41.07
2022-12-31T12:37:32.438Z,38.87
2022-12-31T12:40:02.354Z,35.33
2022-12-31T12:42:31.401Z,36.63
2022-12-31T12:45:05.148Z,32.97
2022-12-31T12:47:34.255Z,32.80
2022-12-31T12:50:06.187Z,34.83
2022-12-31T12:52:59.198Z,39.23
2022-12-31T12:55:36.838Z,34.30
2022-12-31T12:58:19.451Z,35.53
2022-12-31T13:01:01.533Z,40.73
2022-12-31T13:04:32.959Z,37.77
2022-12-31T13:06:59.834Z,36.03
2022-12-31T13:09:40.779Z,37.73
2022-12-31T13:12:20.518Z,34.83
2022-12-31T13:14:56.454Z,38.60
2022-12-31T13:17:36.982Z,32.00
2022-12-31T13:20:13.449Z,28.63
2022-12-31T13:22:49.323Z,31.70
2022-12-31T13:25:27.445Z,35.00
2022-12-31T13:27:59.775Z,34.47
2022-12-31T13:30:33.957Z,29.50
2022-12-31T13:33:08.622Z,29.23
2022-12-31T13:35:44.479Z,25.60
2022-12-31T13:38:18.887Z,31.10
2022-12-31T13:40:53.272Z,30.63
2022-12-31T13:43:28.865Z,35.63
2022-12-31T13:46:07.222Z,30.83
2022-12-31T13:48:41.913Z,32.83
2022-12-31T13:51:16.501Z,32.03
2022-12-31T13:53:52.876Z,31.03
2022-12-31T13:56:26.067Z,32.07
2022-12-31T13:58:59.551Z,33.87
2022-12-31T14:01:34.594Z,33.63
2022-12-31T14:04:09.393Z,32.57
2022-12-31T14:06:46.053Z,34.83
2022-12-31T14:09:21.493Z,42.73
2022-12-31T14:12:10.539Z,32.27
2022-12-31T14:14:47.555Z,29.80
2022-12-31T14:17:24.762Z,29.63
2022-12-31T14:20:02.062Z,30.33
2022-12-31T14:22:37.337Z,28.47
2022-12-31T14:25:19.013Z,23.77
2022-12-31T14:27:49.395Z,27.13
2022-12-31T14:30:20.843Z,31.20
2022-12-31T14:33:11.871Z,30.37
2022-12-31T14:35:59.086Z,32.07
2022-12-31T14:38:39.971Z,28.53
2022-12-31T14:41:20.462Z,29.80
2022-12-31T14:44:01.064Z,27.67
2022-12-31T14:46:37.275Z,28.00
2022-12-31T14:49:21.418Z,24.30
2022-12-31T14:51:49.775Z,29.10
2022-12-31T14:54:29.516Z,29.50
2022-12-31T14:56:59.036Z,32.63
2022-12-31T14:59:29.212Z,36.27
2022-12-31T15:01:59.106Z,51.33
2022-12-31T15:04:35.568Z,61.67
2022-12-31T15:07:12.127Z,47.43
2022-12-31T15:09:59.202Z,52.23
2022-12-31T15:12:47.945Z,35.50
2022-12-31T15:15:33.429Z,33.27
2022-12-31T15:18:18.911Z,49.47
2022-12-31T15:21:12.889Z,55.53
2022-12-31T15:23:43.901Z,44.10
2022-12-31T15:26:23.951Z,40.77
2022-12-31T15:29:03.533Z,46.67
2022-12-31T15:31:34.046Z,294.63
2022-12-31T15:34:04.192Z,91.70
2022-12-31T15:36:35.777Z,123.07
2022-12-31T15:39:37.123Z,175.00
2022-12-31T15:45:01.696Z,57.13
2022-12-31T15:47:32.089Z,79.87
2022-12-31T15:50:03.925Z,96.10
2022-12-31T15:52:44.815Z,94.07
2022-12-31T15:55:23.364Z,99.07
2022-12-31T15:57:51.867Z,69.53
2022-12-31T16:00:24.084Z,41.97
2022-12-31T16:02:55.765Z,36.07
2022-12-31T16:05:27.087Z,40.83
2022-12-31T16:07:57.286Z,37.73
2022-12-31T16:10:28.044Z,43.97
2022-12-31T16:12:58.026Z,47.83
2022-12-31T16:15:30.514Z,48.93
2022-12-31T16:18:04.590Z,48.93
2022-12-31T16:20:34.799Z,47.17
2022-12-31T16:23:04.522Z,39.07
2022-12-31T16:25:34.247Z,46.00
2022-12-31T16:28:04.972Z,51.43
2022-12-31T16:30:37.083Z,51.03
2022-12-31T16:33:13.055Z,54.40
2022-12-31T16:35:41.353Z,51.50
2022-12-31T16:38:16.322Z,62.57
2022-12-31T16:40:47.037Z,66.37
2022-12-31T16:43:27.470Z,71.03
2022-12-31T16:46:00.038Z,56.10
2022-12-31T16:48:28.526Z,57.80
2022-12-31T16:50:57.990Z,62.60
2022-12-31T16:53:30.006Z,66.90
2022-12-31T16:56:03.597Z,66.43
2022-12-31T16:58:34.134Z,67.73
2022-12-31T17:01:14.388Z,67.17
2022-12-31T17:03:46.963Z,63.33
2022-12-31T17:06:18.103Z,72.23
2022-12-31T17:09:06.260Z,72.00
2022-12-31T17:11:36.371Z,72.77
2022-12-31T17:14:13.713Z,102.13
2022-12-31T17:17:01.450Z,114.97
2022-12-31T17:19:40.311Z,136.20
2022-12-31T17:22:14.580Z,108.40
2022-12-31T17:24:42.883Z,115.80
2022-12-31T17:27:11.678Z,153.37
2022-12-31T17:29:39.957Z,126.57
2022-12-31T17:32:29.863Z,118.67
2022-12-31T17:34:58.017Z,127.13
2022-12-31T17:37:28.423Z,90.83
2022-12-31T17:40:17.495Z,96.43
2022-12-31T17:42:49.500Z,91.20
2022-12-31T17:45:22.136Z,80.67
2022-12-31T17:47:54.061Z,83.63
2022-12-31T17:50:24.255Z,91.87
2022-12-31T17:52:56.717Z,90.87
2022-12-31T17:55:25.146Z,75.37
2022-12-31T17:57:56.870Z,62.80
2022-12-31T18:00:27.650Z,68.83
2022-12-31T18:02:57.487Z,64.83
2022-12-31T18:05:26.040Z,71.13
2022-12-31T18:07:54.966Z,76.40
2022-12-31T18:10:25.788Z,79.77
2022-12-31T18:12:53.958Z,263.40
2022-12-31T18:15:24.041Z,101.17
2022-12-31T18:17:52.427Z,133.07
2022-12-31T18:20:21.912Z,197.50
2022-12-31T18:22:50.147Z,189.03
2022-12-31T18:25:20.670Z,148.87
2022-12-31T18:27:49.270Z,158.53
2022-12-31T18:30:17.770Z,229.40
2022-12-31T18:32:46.934Z,253.07
2022-12-31T18:35:48.660Z,288.27
2022-12-31T18:38:14.156Z,244.73
2022-12-31T18:40:46.555Z,202.83
2022-12-31T18:43:17.541Z,204.20
2022-12-31T18:45:46.752Z,188.10
2022-12-31T18:48:14.952Z,163.00
2022-12-31T18:50:43.501Z,175.83
2022-12-31T18:53:18.188Z,168.33
2022-12-31T18:55:49.768Z,186.47
2022-12-31T18:58:20.759Z,149.03
2022-12-31T19:00:50.175Z,134.13
2022-12-31T19:03:21.155Z,132.37
2022-12-31T19:05:51.120Z,123.53
2022-12-31T19:08:22.736Z,103.33
2022-12-31T19:10:53.607Z,87.53
2022-12-31T19:13:23.396Z,108.80
2022-12-31T19:15:53.443Z,111.03
2022-12-31T19:18:21.530Z,103.80
2022-12-31T19:20:49.642Z,100.63
2022-12-31T19:23:19.891Z,110.03
2022-12-31T19:25:50.987Z,104.07
2022-12-31T19:28:21.485Z,112.40
2022-12-31T19:30:50.045Z,107.17
2022-12-31T19:33:18.739Z,117.40
2022-12-31T19:35:47.319Z,106.93
2022-12-31T19:38:20.667Z,103.20
2022-12-31T19:40:51.643Z,104.43
2022-12-31T19:43:21.932Z,100.53
2022-12-31T19:45:51.139Z,92.90
2022-12-31T19:48:22.849Z,116.60
2022-12-31T19:50:54.439Z,118.20
2022-12-31T19:53:26.348Z,102.77
2022-12-31T19:55:56.135Z,102.87
2022-12-31T19:58:26.588Z,99.70
2022-12-31T20:01:01.896Z,116.80
2022-12-31T20:03:32.628Z,120.37
2022-12-31T20:06:05.939Z,122.77
2022-12-31T20:08:34.753Z,131.43
2022-12-31T20:11:12.734Z,114.57
2022-12-31T20:13:41.784Z,110.37
2022-12-31T20:16:12.346Z,83.33
2022-12-31T20:18:41.676Z,89.60
2022-12-31T20:21:11.857Z,90.63
2022-12-31T20:23:39.947Z,89.50
2022-12-31T20:26:09.520Z,85.63
2022-12-31T20:28:38.335Z,97.87
2022-12-31T20:31:08.017Z,86.30
2022-12-31T20:33:36.332Z,84.67
2022-12-31T20:36:04.892Z,81.07
2022-12-31T20:38:33.042Z,85.07
2022-12-31T20:41:04.720Z,95.00
2022-12-31T20:43:34.268Z,133.47
2022-12-31T20:46:12.673Z,190.43
2022-12-31T20:48:43.099Z,171.17
2022-12-31T20:51:11.477Z,173.07
2022-12-31T20:53:39.755Z,158.50
2022-12-31T20:56:08.786Z,161.77
2022-12-31T20:58:38.381Z,159.53
2022-12-31T21:01:08.767Z,154.53
2022-12-31T21:04:04.468Z,153.93
2022-12-31T21:06:26.085Z,140.20
2022-12-31T21:08:55.318Z,148.00
2022-12-31T21:11:40.929Z,146.00
2022-12-31T21:14:10.770Z,126.30
2022-12-31T21:16:38.815Z,130.13
2022-12-31T21:19:07.207Z,132.60
2022-12-31T21:21:35.643Z,131.70
2022-12-31T21:24:03.798Z,129.50
2022-12-31T21:26:32.169Z,117.33
2022-12-31T21:29:00.608Z,108.97
2022-12-31T21:31:30.102Z,102.63
2022-12-31T21:33:58.227Z,100.80
2022-12-31T21:36:26.307Z,100.20
2022-12-31T21:38:54.426Z,110.10
2022-12-31T21:41:39.960Z,99.50
2022-12-31T21:44:08.084Z,104.13
2022-12-31T21:46:37.672Z,114.20
2022-12-31T21:49:05.907Z,102.90
2022-12-31T21:51:53.909Z,101.70
2022-12-31T21:54:36.034Z,107.60
2022-12-31T21:57:04.910Z,102.57
2022-12-31T22:00:09.140Z,100.53
2022-12-31T22:02:59.348Z,92.73
2022-12-31T22:05:29.366Z,95.07
2022-12-31T22:07:57.587Z,93.37
2022-12-31T22:10:25.855Z,94.13
2022-12-31T22:12:54.078Z,83.87
2022-12-31T22:15:22.418Z,82.73
2022-12-31T22:17:51.994Z,75.43
2022-12-31T22:20:29.341Z,82.23
2022-12-31T22:22:57.518Z,131.90
2022-12-31T22:25:25.587Z,129.80
2022-12-31T22:28:27.721Z,178.93
2022-12-31T22:30:42.504Z,285.50
2022-12-31T22:33:11.974Z,289.93
2022-12-31T22:35:40.159Z,220.60
2022-12-31T22:38:12.119Z,218.60
2022-12-31T22:40:40.602Z,227.10
2022-12-31T22:43:09.008Z,240.40
2022-12-31T22:45:37.924Z,245.03
2022-12-31T22:48:06.604Z,230.30
2022-12-31T22:50:36.151Z,214.23
2022-12-31T22:53:04.260Z,212.27
2022-12-31T22:55:32.744Z,217.07
2022-12-31T22:58:00.701Z,235.50
2022-12-31T23:00:40.307Z,255.20
2022-12-31T23:03:09.143Z,244.27
2022-12-31T23:05:38.735Z,242.97
2022-12-31T23:08:16.978Z,250.40
2022-12-31T23:11:00.233Z,269.13
2022-12-31T23:13:50.669Z,274.90
2022-12-31T23:16:37.608Z,266.67
2022-12-31T23:19:24.615Z,252.47
2022-12-31T23:22:12.844Z,247.67
2022-12-31T23:24:41.054Z,257.27
2022-12-31T23:27:09.783Z,254.30
2022-12-31T23:29:46.011Z,262.13
2022-12-31T23:32:16.108Z,230.30
2022-12-31T23:34:45.165Z,185.03
2022-12-31T23:37:15.201Z,196.33
2022-12-31T23:39:44.065Z,193.20
2022-12-31T23:42:12.344Z,190.50
2022-12-31T23:44:40.438Z,173.43
2022-12-31T23:47:08.594Z,161.07
2022-12-31T23:49:37.665Z,165.53
2022-12-31T23:52:05.893Z,168.00
2022-12-31T23:54:36.135Z,170.83
2022-12-31T23:57:04.209Z,159.70
2022-12-31T23:59:32.314Z,153.47
